Mc Donough, Georgia
Current Conditions -  °F | °C
As of 6:52 PM on Friday 28 Nov 2014 (Local Time) from KATL Reporting Station
Clear Clear  
Wind Chill:   Ceiling: Unl
Heat Index:   Visibility: 10mi
Dew Point: -9°   Wind: 0mph
Humidity: 32%   Direction: NA
Pressure: 30.28"   Gusts: NA
Location:  33.4528°N, 84.1842°W
Report Text: KATL 282352Z 00000KT 10SM CLR 07/M09 A3028 RMK AO2 SLP263 T00671089 10106 20067 55003
Loading
Personal Weather Stations






























Interactive Weather Map New forecast layout! Learn more

10-Day Weather Forecast

Advertisements
Track Severe Weather on mobile